ケアンズ の空港の天気 - METARとTAF

ケアンズ国際空港 ( YBCS / CNS ) - オーストラリア クイーンズランド州ケアンズ
飛行場実況気象(Metar)
観測時間05/27 02:00 AEST (05/26 16:00 UTC)
風向・風速南東 4m/s
視程10km以上
天気現象
少しの雲 雲底高度 610m
気温21℃
湿度83%
気圧1016hPa
METARYBCS 261600Z 14008KT 9999 FEW020 21/18 Q1016
過去の天気等 Google飛行場航空写真 Wunderground天気予報

過去48時間のMETAR

飛行場予報(TAF)
発表時間: 5/26 21:08 AEST (5/26 11:08 UTC)
予報対象時間: 26日22時 AEST ~ 27日22時 AEST
風向・風速南東 6m/s
視程10km以上
少しの雲 雲底高度 760m
TAF YBCS 261108Z 2612/2712 14012KT 9999 FEW025